JAL643 RJAA-RJFK
Flight info
| Callsign | JAL643 |
|---|---|
| Flight time | 1h 41m |
| Altitude | 40000 |
| Route | PIGOK Y50 ELNIS Y564 IBENO Y56 TOHME Y54 TURFY Y24 SUC Y757 SPICA |
| Aircraft | B789/H-SDE1E2E3FGHIJ2J3J4J5M1RWXY/LB1D1 |
Departure
| Time | 2026-04-22 00:10 |
|---|---|
| Airport | Narita International Airport (RJAA) |
Arrival
| Time | 2026-04-22 01:51 |
|---|---|
| Airport | Kagoshima Airport (RJFK) |
| Time | Latitude | Longitude | Altitude | Speed | Heading |
|---|---|---|---|---|---|
| 2026-04-21 23:12 | 35.77385 | 140.39284 | 149 ft | 0 kts | 15° |
| 2026-04-21 23:53 | 35.77377 | 140.39282 | 149 ft | 4 kts | 17° |
| 2026-04-21 23:54 | 35.77351 | 140.39271 | 149 ft | 4 kts | 26° |
| 2026-04-21 23:54 | 35.77329 | 140.39254 | 149 ft | 4 kts | 47° |
| 2026-04-21 23:54 | 35.77318 | 140.39232 | 149 ft | 4 kts | 118° |
| 2026-04-21 23:54 | 35.77324 | 140.39224 | 149 ft | 1 kts | 149° |
| 2026-04-21 23:55 | 35.77325 | 140.39223 | 149 ft | 0 kts | 149° |
| 2026-04-21 23:57 | 35.77321 | 140.39226 | 149 ft | 2 kts | 149° |
| 2026-04-21 23:57 | 35.77306 | 140.39237 | 149 ft | 3 kts | 149° |
| 2026-04-21 23:57 | 35.77280 | 140.39256 | 149 ft | 6 kts | 150° |
| 2026-04-21 23:57 | 35.77240 | 140.39284 | 149 ft | 8 kts | 150° |
| 2026-04-21 23:58 | 35.77189 | 140.39321 | 149 ft | 9 kts | 150° |
| 2026-04-21 23:58 | 35.77126 | 140.39365 | 149 ft | 11 kts | 150° |
| 2026-04-21 23:58 | 35.77054 | 140.39417 | 149 ft | 13 kts | 149° |
| 2026-04-21 23:58 | 35.76971 | 140.39446 | 149 ft | 12 kts | 186° |
| 2026-04-21 23:59 | 35.76896 | 140.39415 | 149 ft | 12 kts | 204° |
| 2026-04-21 23:59 | 35.76817 | 140.39370 | 149 ft | 13 kts | 204° |
| 2026-04-21 23:59 | 35.76729 | 140.39322 | 149 ft | 14 kts | 204° |
| 2026-04-21 23:59 | 35.76634 | 140.39269 | 149 ft | 15 kts | 204° |
| 2026-04-22 00:00 | 35.76532 | 140.39214 | 149 ft | 16 kts | 204° |
| 2026-04-22 00:00 | 35.76425 | 140.39154 | 149 ft | 17 kts | 204° |
| 2026-04-22 00:00 | 35.76312 | 140.39092 | 149 ft | 18 kts | 204° |
| 2026-04-22 00:00 | 35.76194 | 140.39026 | 150 ft | 19 kts | 204° |
| 2026-04-22 00:01 | 35.76073 | 140.38980 | 150 ft | 17 kts | 171° |
| 2026-04-22 00:01 | 35.75996 | 140.39049 | 150 ft | 13 kts | 144° |
| 2026-04-22 00:01 | 35.75914 | 140.39110 | 149 ft | 14 kts | 149° |
| 2026-04-22 00:01 | 35.75829 | 140.39134 | 149 ft | 12 kts | 202° |
| 2026-04-22 00:02 | 35.75776 | 140.39070 | 149 ft | 10 kts | 234° |
| 2026-04-22 00:02 | 35.75744 | 140.39002 | 150 ft | 9 kts | 240° |
| 2026-04-22 00:02 | 35.75711 | 140.38930 | 150 ft | 11 kts | 240° |
| 2026-04-22 00:02 | 35.75671 | 140.38846 | 150 ft | 12 kts | 239° |
| 2026-04-22 00:03 | 35.75624 | 140.38750 | 150 ft | 13 kts | 237° |
| 2026-04-22 00:03 | 35.75549 | 140.38709 | 150 ft | 11 kts | 171° |
| 2026-04-22 00:03 | 35.75479 | 140.38745 | 150 ft | 11 kts | 151° |
| 2026-04-22 00:03 | 35.75407 | 140.38796 | 150 ft | 13 kts | 149° |
| 2026-04-22 00:04 | 35.75328 | 140.38854 | 150 ft | 14 kts | 152° |
| 2026-04-22 00:04 | 35.75239 | 140.38862 | 150 ft | 12 kts | 198° |
| 2026-04-22 00:04 | 35.75158 | 140.38817 | 150 ft | 13 kts | 205° |
| 2026-04-22 00:04 | 35.75072 | 140.38805 | 150 ft | 12 kts | 169° |
| 2026-04-22 00:05 | 35.74994 | 140.38850 | 150 ft | 13 kts | 149° |
| 2026-04-22 00:05 | 35.74913 | 140.38908 | 150 ft | 14 kts | 149° |
| 2026-04-22 00:05 | 35.74823 | 140.38973 | 150 ft | 16 kts | 149° |
| 2026-04-22 00:05 | 35.74726 | 140.39043 | 150 ft | 17 kts | 149° |
| 2026-04-22 00:06 | 35.74619 | 140.39121 | 149 ft | 19 kts | 149° |
| 2026-04-22 00:06 | 35.74510 | 140.39199 | 149 ft | 18 kts | 150° |
| 2026-04-22 00:06 | 35.74436 | 140.39215 | 149 ft | 6 kts | 202° |
| 2026-04-22 00:06 | 35.74432 | 140.39211 | 149 ft | 0 kts | 213° |
| 2026-04-22 00:07 | 35.74427 | 140.39207 | 149 ft | 2 kts | 214° |
| 2026-04-22 00:07 | 35.74405 | 140.39183 | 149 ft | 6 kts | 225° |
| 2026-04-22 00:08 | 35.74375 | 140.39131 | 148 ft | 9 kts | 240° |
| 2026-04-22 00:08 | 35.74356 | 140.39069 | 147 ft | 2 kts | 277° |
| 2026-04-22 00:08 | 35.74358 | 140.39066 | 148 ft | 0 kts | 292° |
| 2026-04-22 00:08 | 35.74359 | 140.39064 | 148 ft | 1 kts | 302° |
| 2026-04-22 00:09 | 35.74378 | 140.39041 | 148 ft | 4 kts | 325° |
| 2026-04-22 00:09 | 35.74443 | 140.38994 | 148 ft | 32 kts | 329° |
| 2026-04-22 00:09 | 35.74841 | 140.38707 | 151 ft | 100 kts | 330° |
| 2026-04-22 00:09 | 35.75625 | 140.38141 | 153 ft | 158 kts | 329° |
| 2026-04-22 00:10 | 35.76677 | 140.37420 | 415 ft | 184 kts | 332° |
| 2026-04-22 00:10 | 35.77834 | 140.36614 | 1093 ft | 189 kts | 326° |
| 2026-04-22 00:10 | 35.78929 | 140.35755 | 2234 ft | 198 kts | 324° |
| 2026-04-22 00:10 | 35.80188 | 140.34797 | 2935 ft | 229 kts | 327° |
| 2026-04-22 00:11 | 35.81647 | 140.33750 | 3558 ft | 259 kts | 327° |
| 2026-04-22 00:11 | 35.83277 | 140.32585 | 4624 ft | 272 kts | 328° |
| 2026-04-22 00:11 | 35.84912 | 140.31412 | 6102 ft | 274 kts | 326° |
| 2026-04-22 00:11 | 35.86574 | 140.30209 | 6858 ft | 278 kts | 326° |
| 2026-04-22 00:12 | 35.88250 | 140.28991 | 6975 ft | 282 kts | 326° |
| 2026-04-22 00:12 | 35.89814 | 140.27861 | 6970 ft | 275 kts | 326° |
| 2026-04-22 00:12 | 35.91464 | 140.26668 | 6976 ft | 274 kts | 326° |
| 2026-04-22 00:12 | 35.93104 | 140.25481 | 6975 ft | 272 kts | 326° |
| 2026-04-22 00:13 | 35.94734 | 140.24295 | 6984 ft | 274 kts | 325° |
| 2026-04-22 00:13 | 35.96404 | 140.23154 | 6983 ft | 273 kts | 334° |
| 2026-04-22 00:13 | 35.98309 | 140.22782 | 6995 ft | 283 kts | 360° |
| 2026-04-22 00:13 | 36.00222 | 140.23430 | 6978 ft | 291 kts | 26° |
| 2026-04-22 00:14 | 36.01783 | 140.24977 | 7009 ft | 293 kts | 42° |
| 2026-04-22 00:14 | 36.03232 | 140.26764 | 6993 ft | 294 kts | 49° |
| 2026-04-22 00:14 | 36.04131 | 140.29024 | 6986 ft | 298 kts | 78° |
| 2026-04-22 00:14 | 36.04201 | 140.31560 | 8026 ft | 294 kts | 92° |
| 2026-04-22 00:15 | 36.04244 | 140.34130 | 9088 ft | 304 kts | 88° |
| 2026-04-22 00:15 | 36.04324 | 140.36775 | 10167 ft | 313 kts | 88° |
| 2026-04-22 00:15 | 36.04348 | 140.39569 | 10738 ft | 338 kts | 90° |
| 2026-04-22 00:15 | 36.04249 | 140.42584 | 11169 ft | 365 kts | 101° |
| 2026-04-22 00:16 | 36.03287 | 140.45574 | 11612 ft | 387 kts | 122° |
| 2026-04-22 00:16 | 36.01882 | 140.48476 | 12428 ft | 397 kts | 124° |
| 2026-04-22 00:16 | 36.00396 | 140.51387 | 13416 ft | 406 kts | 125° |
| 2026-04-22 00:16 | 35.98762 | 140.54272 | 14254 ft | 409 kts | 136° |
| 2026-04-22 00:17 | 35.96784 | 140.56804 | 15168 ft | 413 kts | 137° |
| 2026-04-22 00:17 | 35.94836 | 140.59440 | 16100 ft | 418 kts | 137° |
| 2026-04-22 00:17 | 35.92827 | 140.62049 | 16973 ft | 419 kts | 144° |
| 2026-04-22 00:17 | 35.90496 | 140.64050 | 17812 ft | 413 kts | 158° |
| 2026-04-22 00:18 | 35.87875 | 140.65402 | 18652 ft | 406 kts | 171° |
| 2026-04-22 00:18 | 35.85115 | 140.66026 | 19328 ft | 401 kts | 184° |
| 2026-04-22 00:18 | 35.82354 | 140.65917 | 20017 ft | 395 kts | 196° |
| 2026-04-22 00:18 | 35.79673 | 140.65352 | 20664 ft | 399 kts | 197° |
| 2026-04-22 00:19 | 35.76923 | 140.64758 | 21361 ft | 403 kts | 198° |
| 2026-04-22 00:19 | 35.74142 | 140.64145 | 22011 ft | 409 kts | 198° |
| 2026-04-22 00:19 | 35.71321 | 140.63528 | 22660 ft | 414 kts | 198° |
| 2026-04-22 00:19 | 35.68469 | 140.62913 | 23260 ft | 419 kts | 198° |
| 2026-04-22 00:20 | 35.65573 | 140.62292 | 23848 ft | 423 kts | 198° |
| 2026-04-22 00:20 | 35.62654 | 140.61666 | 24384 ft | 426 kts | 199° |
| 2026-04-22 00:20 | 35.59795 | 140.60831 | 24882 ft | 420 kts | 207° |
| 2026-04-22 00:20 | 35.57109 | 140.59481 | 25405 ft | 414 kts | 215° |
| 2026-04-22 00:21 | 35.54657 | 140.57675 | 25901 ft | 408 kts | 223° |
| 2026-04-22 00:21 | 35.52480 | 140.55469 | 26401 ft | 404 kts | 230° |
| 2026-04-22 00:21 | 35.50637 | 140.52961 | 26871 ft | 400 kts | 238° |
| 2026-04-22 00:21 | 35.49093 | 140.50120 | 27361 ft | 398 kts | 245° |
| 2026-04-22 00:22 | 35.47913 | 140.47061 | 27816 ft | 397 kts | 252° |
| 2026-04-22 00:22 | 35.46947 | 140.43877 | 28238 ft | 400 kts | 252° |
| 2026-04-22 00:22 | 35.45968 | 140.40679 | 28702 ft | 402 kts | 252° |
| 2026-04-22 00:22 | 35.44994 | 140.37459 | 29132 ft | 404 kts | 252° |
| 2026-04-22 00:23 | 35.44018 | 140.34212 | 29558 ft | 406 kts | 252° |
| 2026-04-22 00:23 | 35.43031 | 140.30953 | 29959 ft | 409 kts | 252° |
| 2026-04-22 00:23 | 35.42037 | 140.27685 | 30316 ft | 411 kts | 252° |
| 2026-04-22 00:23 | 35.41035 | 140.24390 | 30636 ft | 413 kts | 252° |
| 2026-04-22 00:24 | 35.40368 | 140.22193 | 30829 ft | 415 kts | 252° |
| 2026-04-22 00:25 | 35.39945 | 140.20800 | 30966 ft | 416 kts | 252° |
| 2026-04-22 00:25 | 35.39237 | 140.18473 | 31163 ft | 417 kts | 252° |
| 2026-04-22 00:25 | 35.38230 | 140.15170 | 31461 ft | 419 kts | 252° |
| 2026-04-22 00:25 | 35.37199 | 140.11793 | 31742 ft | 421 kts | 252° |
| 2026-04-22 00:26 | 35.36170 | 140.08424 | 32007 ft | 423 kts | 252° |
| 2026-04-22 00:26 | 35.35139 | 140.05051 | 32357 ft | 422 kts | 252° |
| 2026-04-22 00:26 | 35.34108 | 140.01686 | 32771 ft | 421 kts | 252° |
| 2026-04-22 00:26 | 35.33424 | 139.99455 | 33039 ft | 420 kts | 252° |
| 2026-04-22 00:27 | 35.32396 | 139.96104 | 33423 ft | 419 kts | 252° |
| 2026-04-22 00:27 | 35.31368 | 139.92755 | 33838 ft | 418 kts | 252° |
| 2026-04-22 00:27 | 35.29991 | 139.88361 | 34314 ft | 416 kts | 251° |
| 2026-04-22 00:27 | 35.28936 | 139.85058 | 34648 ft | 415 kts | 251° |
| 2026-04-22 00:28 | 35.28239 | 139.82857 | 34876 ft | 415 kts | 251° |
| 2026-04-22 00:28 | 35.27206 | 139.79570 | 35206 ft | 414 kts | 251° |
| 2026-04-22 00:28 | 35.26170 | 139.76283 | 35526 ft | 413 kts | 251° |
| 2026-04-22 00:28 | 35.25143 | 139.73043 | 35854 ft | 412 kts | 251° |
| 2026-04-22 00:29 | 35.24105 | 139.69776 | 36171 ft | 411 kts | 251° |
| 2026-04-22 00:29 | 35.23071 | 139.66514 | 36493 ft | 410 kts | 251° |
| 2026-04-22 00:29 | 35.22042 | 139.63271 | 36807 ft | 409 kts | 252° |
| 2026-04-22 00:29 | 35.21012 | 139.60031 | 37112 ft | 408 kts | 252° |
| 2026-04-22 00:30 | 35.19981 | 139.56794 | 37407 ft | 408 kts | 252° |
| 2026-04-22 00:30 | 35.18968 | 139.53567 | 37693 ft | 406 kts | 254° |
| 2026-04-22 00:30 | 35.18226 | 139.50249 | 37971 ft | 403 kts | 261° |
| 2026-04-22 00:30 | 35.17821 | 139.46864 | 38251 ft | 401 kts | 266° |
| 2026-04-22 00:31 | 35.17661 | 139.43461 | 38502 ft | 401 kts | 267° |
| 2026-04-22 00:31 | 35.17496 | 139.40068 | 38783 ft | 400 kts | 266° |
| 2026-04-22 00:31 | 35.17336 | 139.36696 | 39020 ft | 399 kts | 267° |
| 2026-04-22 00:31 | 35.17182 | 139.33310 | 39235 ft | 399 kts | 267° |
| 2026-04-22 00:32 | 35.17027 | 139.29930 | 39458 ft | 398 kts | 267° |
| 2026-04-22 00:32 | 35.16867 | 139.26554 | 39667 ft | 398 kts | 267° |
| 2026-04-22 00:32 | 35.16706 | 139.23180 | 39819 ft | 399 kts | 267° |
| 2026-04-22 00:32 | 35.16545 | 139.19783 | 39924 ft | 401 kts | 267° |
| 2026-04-22 00:33 | 35.16385 | 139.16415 | 40019 ft | 403 kts | 267° |
| 2026-04-22 00:33 | 35.16248 | 139.13553 | 40122 ft | 404 kts | 267° |
| 2026-04-22 00:33 | 35.16081 | 139.10115 | 40122 ft | 407 kts | 267° |
| 2026-04-22 00:34 | 35.15743 | 139.03192 | 40124 ft | 407 kts | 267° |
| 2026-04-22 00:34 | 35.15403 | 138.96289 | 40115 ft | 406 kts | 267° |
| 2026-04-22 00:35 | 35.15061 | 138.89433 | 40120 ft | 406 kts | 267° |
| 2026-04-22 00:35 | 35.14713 | 138.82547 | 40112 ft | 406 kts | 267° |
| 2026-04-22 00:36 | 35.14364 | 138.75714 | 40110 ft | 406 kts | 267° |
| 2026-04-22 00:36 | 35.14009 | 138.68831 | 40115 ft | 406 kts | 267° |
| 2026-04-22 00:37 | 35.13650 | 138.61954 | 40110 ft | 406 kts | 267° |
| 2026-04-22 00:37 | 35.13286 | 138.55063 | 40101 ft | 407 kts | 267° |
| 2026-04-22 00:38 | 35.12919 | 138.48174 | 40125 ft | 407 kts | 267° |
| 2026-04-22 00:38 | 35.12542 | 138.41281 | 40122 ft | 406 kts | 265° |
| 2026-04-22 00:39 | 35.11315 | 138.34531 | 40121 ft | 410 kts | 253° |
| 2026-04-22 00:39 | 35.09395 | 138.28007 | 40113 ft | 410 kts | 253° |
| 2026-04-22 00:40 | 35.07464 | 138.21472 | 40109 ft | 409 kts | 253° |
| 2026-04-22 00:40 | 35.05525 | 138.14930 | 40118 ft | 408 kts | 253° |
| 2026-04-22 00:41 | 35.03584 | 138.08386 | 40117 ft | 410 kts | 253° |
| 2026-04-22 00:41 | 35.01632 | 138.01829 | 40112 ft | 411 kts | 253° |
| 2026-04-22 00:42 | 34.99677 | 137.95270 | 40110 ft | 411 kts | 253° |
| 2026-04-22 00:42 | 34.97719 | 137.88722 | 40104 ft | 411 kts | 253° |
| 2026-04-22 00:43 | 34.95756 | 137.82167 | 40098 ft | 411 kts | 253° |
| 2026-04-22 00:43 | 34.93867 | 137.75877 | 40101 ft | 412 kts | 253° |
| 2026-04-22 00:44 | 34.91895 | 137.69324 | 40095 ft | 411 kts | 253° |
| 2026-04-22 00:44 | 34.89986 | 137.62965 | 40094 ft | 411 kts | 253° |
| 2026-04-22 00:45 | 34.88003 | 137.56323 | 40095 ft | 411 kts | 253° |
| 2026-04-22 00:45 | 34.86046 | 137.49812 | 40090 ft | 412 kts | 253° |
| 2026-04-22 00:46 | 34.84113 | 137.43250 | 40091 ft | 411 kts | 254° |
| 2026-04-22 00:46 | 34.82264 | 137.36663 | 40093 ft | 411 kts | 253° |
| 2026-04-22 00:47 | 34.80366 | 137.30103 | 40086 ft | 410 kts | 254° |
| 2026-04-22 00:47 | 34.78520 | 137.23653 | 40085 ft | 410 kts | 254° |
| 2026-04-22 00:48 | 34.77031 | 137.18492 | 40085 ft | 410 kts | 253° |
| 2026-04-22 00:48 | 34.75260 | 137.12352 | 40095 ft | 410 kts | 253° |
| 2026-04-22 00:49 | 34.73369 | 137.05812 | 40093 ft | 410 kts | 253° |
| 2026-04-22 00:49 | 34.71466 | 136.99274 | 40094 ft | 409 kts | 251° |
| 2026-04-22 00:50 | 34.68726 | 136.93148 | 40111 ft | 419 kts | 239° |
| 2026-04-22 00:50 | 34.65131 | 136.87536 | 40099 ft | 421 kts | 238° |
| 2026-04-22 00:51 | 34.61505 | 136.81930 | 40096 ft | 422 kts | 237° |
| 2026-04-22 00:51 | 34.57878 | 136.76333 | 40102 ft | 422 kts | 237° |
| 2026-04-22 00:52 | 34.54247 | 136.70737 | 40101 ft | 422 kts | 237° |
| 2026-04-22 00:52 | 34.50709 | 136.65292 | 40099 ft | 422 kts | 237° |
| 2026-04-22 00:53 | 34.47091 | 136.59735 | 40096 ft | 423 kts | 237° |
| 2026-04-22 00:53 | 34.43443 | 136.54139 | 40096 ft | 422 kts | 237° |
| 2026-04-22 00:54 | 34.39798 | 136.48556 | 40098 ft | 422 kts | 237° |
| 2026-04-22 00:54 | 34.36149 | 136.42977 | 40095 ft | 422 kts | 237° |
| 2026-04-22 00:55 | 34.32492 | 136.37393 | 40091 ft | 423 kts | 237° |
| 2026-04-22 00:55 | 34.27007 | 136.29038 | 40096 ft | 421 kts | 237° |
| 2026-04-22 00:56 | 34.23388 | 136.23530 | 40092 ft | 423 kts | 237° |
| 2026-04-22 00:56 | 34.19718 | 136.17961 | 40089 ft | 423 kts | 237° |
| 2026-04-22 00:57 | 34.16053 | 136.12403 | 40090 ft | 423 kts | 237° |
| 2026-04-22 00:57 | 34.12373 | 136.06833 | 40094 ft | 425 kts | 237° |
| 2026-04-22 00:58 | 34.08674 | 136.01243 | 40094 ft | 425 kts | 237° |
| 2026-04-22 00:58 | 34.04983 | 135.95674 | 40086 ft | 424 kts | 237° |
| 2026-04-22 00:59 | 34.01304 | 135.90130 | 40095 ft | 424 kts | 237° |
| 2026-04-22 00:59 | 33.97623 | 135.84592 | 40092 ft | 424 kts | 236° |
| 2026-04-22 01:00 | 33.93927 | 135.79042 | 40085 ft | 425 kts | 237° |
| 2026-04-22 01:00 | 33.90224 | 135.73487 | 40087 ft | 425 kts | 237° |
| 2026-04-22 01:01 | 33.86522 | 135.67945 | 40084 ft | 424 kts | 237° |
| 2026-04-22 01:01 | 33.82824 | 135.62415 | 40086 ft | 425 kts | 237° |
| 2026-04-22 01:02 | 33.79086 | 135.56835 | 40076 ft | 424 kts | 237° |
| 2026-04-22 01:02 | 33.75489 | 135.51474 | 40075 ft | 425 kts | 237° |
| 2026-04-22 01:03 | 33.71770 | 135.45939 | 40066 ft | 425 kts | 237° |
| 2026-04-22 01:03 | 33.68062 | 135.40428 | 40066 ft | 425 kts | 237° |
| 2026-04-22 01:04 | 33.64338 | 135.34903 | 40066 ft | 426 kts | 236° |
| 2026-04-22 01:04 | 33.60603 | 135.29369 | 40066 ft | 426 kts | 236° |
| 2026-04-22 01:05 | 33.56861 | 135.23833 | 40070 ft | 427 kts | 236° |
| 2026-04-22 01:05 | 33.53124 | 135.18316 | 40074 ft | 426 kts | 236° |
| 2026-04-22 01:06 | 33.49408 | 135.12833 | 40077 ft | 426 kts | 236° |
| 2026-04-22 01:06 | 33.45657 | 135.07312 | 40075 ft | 427 kts | 236° |
| 2026-04-22 01:07 | 33.42538 | 135.02725 | 40081 ft | 426 kts | 236° |
| 2026-04-22 01:07 | 33.38799 | 134.97233 | 40081 ft | 426 kts | 236° |
| 2026-04-22 01:08 | 33.35060 | 134.91734 | 40080 ft | 426 kts | 236° |
| 2026-04-22 01:08 | 33.31317 | 134.86246 | 40076 ft | 425 kts | 236° |
| 2026-04-22 01:09 | 33.27580 | 134.80772 | 40078 ft | 424 kts | 236° |
| 2026-04-22 01:09 | 33.23850 | 134.75316 | 40073 ft | 424 kts | 236° |
| 2026-04-22 01:10 | 33.20111 | 134.69855 | 40080 ft | 425 kts | 236° |
| 2026-04-22 01:10 | 33.16730 | 134.64132 | 40096 ft | 419 kts | 247° |
| 2026-04-22 01:11 | 33.14663 | 134.57686 | 40090 ft | 415 kts | 256° |
| 2026-04-22 01:11 | 33.13038 | 134.51129 | 40094 ft | 415 kts | 256° |
| 2026-04-22 01:12 | 33.11417 | 134.44510 | 40089 ft | 416 kts | 256° |
| 2026-04-22 01:12 | 33.09783 | 134.37895 | 40089 ft | 416 kts | 256° |
| 2026-04-22 01:13 | 33.08150 | 134.31282 | 40083 ft | 416 kts | 256° |
| 2026-04-22 01:13 | 33.06506 | 134.24650 | 40085 ft | 417 kts | 256° |
| 2026-04-22 01:14 | 33.04886 | 134.18010 | 40081 ft | 417 kts | 256° |
| 2026-04-22 01:14 | 33.03298 | 134.11411 | 40086 ft | 417 kts | 256° |
| 2026-04-22 01:15 | 33.01679 | 134.04774 | 40087 ft | 417 kts | 256° |
| 2026-04-22 01:15 | 33.00070 | 133.98152 | 40084 ft | 417 kts | 256° |
| 2026-04-22 01:16 | 32.98444 | 133.91501 | 40086 ft | 417 kts | 256° |
| 2026-04-22 01:16 | 32.96822 | 133.84874 | 40079 ft | 417 kts | 256° |
| 2026-04-22 01:17 | 32.95212 | 133.78313 | 40079 ft | 417 kts | 256° |
| 2026-04-22 01:17 | 32.93566 | 133.71620 | 40073 ft | 417 kts | 256° |
| 2026-04-22 01:18 | 32.91930 | 133.64987 | 40075 ft | 417 kts | 256° |
| 2026-04-22 01:18 | 32.90294 | 133.58372 | 40072 ft | 417 kts | 256° |
| 2026-04-22 01:19 | 32.88654 | 133.51757 | 40070 ft | 416 kts | 256° |
| 2026-04-22 01:19 | 32.87011 | 133.45145 | 40069 ft | 416 kts | 256° |
| 2026-04-22 01:20 | 32.85368 | 133.38553 | 40074 ft | 416 kts | 256° |
| 2026-04-22 01:20 | 32.83762 | 133.32120 | 40066 ft | 416 kts | 256° |
| 2026-04-22 01:21 | 32.82111 | 133.25525 | 40068 ft | 416 kts | 256° |
| 2026-04-22 01:21 | 32.80456 | 133.18933 | 40068 ft | 416 kts | 256° |
| 2026-04-22 01:22 | 32.78830 | 133.12470 | 40070 ft | 417 kts | 256° |
| 2026-04-22 01:22 | 32.77162 | 133.05858 | 40069 ft | 417 kts | 256° |
| 2026-04-22 01:23 | 32.75276 | 132.99337 | 40085 ft | 420 kts | 248° |
| 2026-04-22 01:23 | 32.72341 | 132.93284 | 40079 ft | 424 kts | 244° |
| 2026-04-22 01:24 | 32.69293 | 132.87291 | 40077 ft | 424 kts | 243° |
| 2026-04-22 01:24 | 32.66250 | 132.81345 | 40077 ft | 424 kts | 243° |
| 2026-04-22 01:25 | 32.63189 | 132.75359 | 40073 ft | 423 kts | 243° |
| 2026-04-22 01:25 | 32.60136 | 132.69407 | 40062 ft | 422 kts | 243° |
| 2026-04-22 01:26 | 32.57075 | 132.63443 | 40061 ft | 423 kts | 243° |
| 2026-04-22 01:26 | 32.54025 | 132.57511 | 40054 ft | 424 kts | 243° |
| 2026-04-22 01:27 | 32.50976 | 132.51592 | 40060 ft | 424 kts | 243° |
| 2026-04-22 01:27 | 32.47893 | 132.45616 | 40056 ft | 424 kts | 243° |
| 2026-04-22 01:28 | 32.44808 | 132.39645 | 40055 ft | 425 kts | 243° |
| 2026-04-22 01:28 | 32.41718 | 132.33676 | 40052 ft | 425 kts | 243° |
| 2026-04-22 01:29 | 32.38627 | 132.27712 | 40054 ft | 425 kts | 243° |
| 2026-04-22 01:29 | 32.35537 | 132.21761 | 40052 ft | 424 kts | 243° |
| 2026-04-22 01:30 | 32.34043 | 132.18888 | 39909 ft | 416 kts | 243° |
| 2026-04-22 01:30 | 32.32529 | 132.15977 | 39176 ft | 417 kts | 243° |
| 2026-04-22 01:30 | 32.31008 | 132.13046 | 38378 ft | 418 kts | 243° |
| 2026-04-22 01:30 | 32.29481 | 132.10114 | 37630 ft | 417 kts | 243° |
| 2026-04-22 01:31 | 32.27962 | 132.07206 | 36933 ft | 415 kts | 243° |
| 2026-04-22 01:31 | 32.26451 | 132.04309 | 36214 ft | 414 kts | 243° |
| 2026-04-22 01:31 | 32.24936 | 132.01402 | 35481 ft | 416 kts | 243° |
| 2026-04-22 01:31 | 32.23410 | 131.98478 | 34734 ft | 421 kts | 243° |
| 2026-04-22 01:32 | 32.21862 | 131.95516 | 33913 ft | 427 kts | 242° |
| 2026-04-22 01:32 | 32.20293 | 131.92521 | 33078 ft | 431 kts | 242° |
| 2026-04-22 01:32 | 32.18710 | 131.89500 | 32199 ft | 435 kts | 242° |
| 2026-04-22 01:32 | 32.17111 | 131.86446 | 31281 ft | 439 kts | 242° |
| 2026-04-22 01:33 | 32.15495 | 131.83365 | 30311 ft | 443 kts | 242° |
| 2026-04-22 01:33 | 32.13865 | 131.80261 | 29266 ft | 445 kts | 242° |
| 2026-04-22 01:33 | 32.12238 | 131.77166 | 28250 ft | 443 kts | 241° |
| 2026-04-22 01:33 | 32.10642 | 131.74129 | 27281 ft | 440 kts | 241° |
| 2026-04-22 01:34 | 32.09094 | 131.71186 | 26337 ft | 437 kts | 241° |
| 2026-04-22 01:34 | 32.07491 | 131.68140 | 25371 ft | 434 kts | 240° |
| 2026-04-22 01:34 | 32.05897 | 131.65116 | 24413 ft | 432 kts | 240° |
| 2026-04-22 01:34 | 32.04317 | 131.62121 | 23430 ft | 430 kts | 240° |
| 2026-04-22 01:35 | 32.02851 | 131.59342 | 22531 ft | 425 kts | 240° |
| 2026-04-22 01:35 | 32.01303 | 131.56412 | 21608 ft | 418 kts | 240° |
| 2026-04-22 01:35 | 31.99773 | 131.53518 | 20702 ft | 413 kts | 240° |
| 2026-04-22 01:35 | 31.98263 | 131.50662 | 19793 ft | 408 kts | 239° |
| 2026-04-22 01:36 | 31.96867 | 131.47787 | 18916 ft | 401 kts | 246° |
| 2026-04-22 01:36 | 31.95903 | 131.44734 | 18004 ft | 396 kts | 255° |
| 2026-04-22 01:36 | 31.95394 | 131.41587 | 17412 ft | 383 kts | 263° |
| 2026-04-22 01:36 | 31.95313 | 131.38505 | 16933 ft | 370 kts | 271° |
| 2026-04-22 01:37 | 31.95569 | 131.35572 | 16462 ft | 357 kts | 275° |
| 2026-04-22 01:37 | 31.95833 | 131.32755 | 16001 ft | 345 kts | 274° |
| 2026-04-22 01:37 | 31.96102 | 131.29954 | 15562 ft | 334 kts | 274° |
| 2026-04-22 01:37 | 31.96366 | 131.27275 | 15134 ft | 324 kts | 274° |
| 2026-04-22 01:38 | 31.96599 | 131.24901 | 14746 ft | 316 kts | 274° |
| 2026-04-22 01:38 | 31.96849 | 131.22316 | 14335 ft | 307 kts | 274° |
| 2026-04-22 01:38 | 31.97083 | 131.19887 | 13943 ft | 299 kts | 274° |
| 2026-04-22 01:38 | 31.97316 | 131.17473 | 13477 ft | 293 kts | 274° |
| 2026-04-22 01:39 | 31.97543 | 131.15123 | 13088 ft | 285 kts | 273° |
| 2026-04-22 01:39 | 31.97756 | 131.12904 | 12712 ft | 278 kts | 273° |
| 2026-04-22 01:39 | 31.97971 | 131.10668 | 12368 ft | 271 kts | 273° |
| 2026-04-22 01:39 | 31.98180 | 131.08484 | 12021 ft | 265 kts | 273° |
| 2026-04-22 01:40 | 31.98384 | 131.06351 | 11668 ft | 259 kts | 273° |
| 2026-04-22 01:40 | 31.98584 | 131.04252 | 11342 ft | 258 kts | 273° |
| 2026-04-22 01:40 | 31.98787 | 131.02099 | 11003 ft | 269 kts | 273° |
| 2026-04-22 01:40 | 31.98996 | 130.99903 | 10636 ft | 271 kts | 273° |
| 2026-04-22 01:41 | 31.99179 | 130.97990 | 10340 ft | 271 kts | 273° |
| 2026-04-22 01:41 | 31.99390 | 130.95775 | 9980 ft | 272 kts | 273° |
| 2026-04-22 01:41 | 31.99600 | 130.93563 | 9594 ft | 272 kts | 273° |
| 2026-04-22 01:41 | 31.99808 | 130.91359 | 9234 ft | 270 kts | 273° |
| 2026-04-22 01:42 | 32.00014 | 130.89163 | 8870 ft | 269 kts | 273° |
| 2026-04-22 01:42 | 32.00220 | 130.86975 | 8518 ft | 268 kts | 273° |
| 2026-04-22 01:42 | 32.00425 | 130.84802 | 8201 ft | 261 kts | 273° |
| 2026-04-22 01:42 | 32.00620 | 130.82739 | 7878 ft | 248 kts | 273° |
| 2026-04-22 01:43 | 32.00805 | 130.80770 | 7575 ft | 236 kts | 273° |
| 2026-04-22 01:43 | 32.00980 | 130.78888 | 7279 ft | 224 kts | 272° |
| 2026-04-22 01:43 | 32.01147 | 130.77104 | 7024 ft | 214 kts | 273° |
| 2026-04-22 01:43 | 32.01304 | 130.75407 | 6750 ft | 208 kts | 272° |
| 2026-04-22 01:44 | 32.01460 | 130.73735 | 6494 ft | 203 kts | 272° |
| 2026-04-22 01:44 | 32.01610 | 130.72104 | 6240 ft | 195 kts | 272° |
| 2026-04-22 01:44 | 32.01475 | 130.70595 | 5970 ft | 180 kts | 244° |
| 2026-04-22 01:44 | 32.00877 | 130.69338 | 5787 ft | 170 kts | 236° |
| 2026-04-22 01:45 | 32.00287 | 130.68150 | 5585 ft | 165 kts | 236° |
| 2026-04-22 01:45 | 31.99710 | 130.66986 | 5339 ft | 160 kts | 236° |
| 2026-04-22 01:45 | 31.99159 | 130.65861 | 5172 ft | 159 kts | 235° |
| 2026-04-22 01:45 | 31.98594 | 130.64716 | 4946 ft | 162 kts | 235° |
| 2026-04-22 01:46 | 31.98036 | 130.63587 | 4739 ft | 160 kts | 235° |
| 2026-04-22 01:46 | 31.97468 | 130.62470 | 4527 ft | 163 kts | 232° |
| 2026-04-22 01:46 | 31.96610 | 130.61729 | 4272 ft | 152 kts | 198° |
| 2026-04-22 01:46 | 31.95552 | 130.61685 | 4090 ft | 155 kts | 166° |
| 2026-04-22 01:47 | 31.94916 | 130.62039 | 3963 ft | 150 kts | 152° |
| 2026-04-22 01:47 | 31.94015 | 130.62670 | 3780 ft | 154 kts | 152° |
| 2026-04-22 01:47 | 31.93093 | 130.63303 | 3580 ft | 152 kts | 150° |
| 2026-04-22 01:47 | 31.92192 | 130.63914 | 3383 ft | 143 kts | 150° |
| 2026-04-22 01:48 | 31.91350 | 130.64483 | 3188 ft | 136 kts | 150° |
| 2026-04-22 01:48 | 31.90550 | 130.65027 | 3020 ft | 135 kts | 149° |
| 2026-04-22 01:48 | 31.89734 | 130.65577 | 2844 ft | 136 kts | 148° |
| 2026-04-22 01:48 | 31.88900 | 130.66141 | 2631 ft | 136 kts | 149° |
| 2026-04-22 01:49 | 31.88087 | 130.66694 | 2449 ft | 136 kts | 148° |
| 2026-04-22 01:49 | 31.87278 | 130.67246 | 2272 ft | 134 kts | 148° |
| 2026-04-22 01:49 | 31.86459 | 130.67798 | 2071 ft | 136 kts | 148° |
| 2026-04-22 01:49 | 31.85623 | 130.68367 | 1887 ft | 139 kts | 147° |
| 2026-04-22 01:50 | 31.84800 | 130.68918 | 1689 ft | 138 kts | 147° |
| 2026-04-22 01:50 | 31.83989 | 130.69471 | 1504 ft | 139 kts | 147° |
| 2026-04-22 01:50 | 31.83158 | 130.70029 | 1309 ft | 140 kts | 148° |
| 2026-04-22 01:50 | 31.82317 | 130.70593 | 1115 ft | 128 kts | 151° |
| 2026-04-22 01:51 | 31.81516 | 130.71095 | 977 ft | 132 kts | 148° |
| 2026-04-22 01:51 | 31.80818 | 130.71615 | 906 ft | 101 kts | 149° |
| 2026-04-22 01:51 | 31.80352 | 130.71930 | 909 ft | 59 kts | 150° |
| 2026-04-22 01:51 | 31.80080 | 130.72090 | 909 ft | 23 kts | 177° |
| 2026-04-22 01:52 | 31.80004 | 130.72047 | 901 ft | 12 kts | 236° |
| 2026-04-22 01:52 | 31.79994 | 130.72026 | 900 ft | 0 kts | 240° |
| 2026-04-22 01:53 | 31.79990 | 130.72012 | 899 ft | 5 kts | 254° |
| 2026-04-22 01:53 | 31.79996 | 130.71962 | 898 ft | 8 kts | 295° |
| 2026-04-22 01:53 | 31.80036 | 130.71916 | 897 ft | 9 kts | 327° |
| 2026-04-22 01:54 | 31.80079 | 130.71860 | 897 ft | 8 kts | 286° |
| 2026-04-22 01:54 | 31.80072 | 130.71807 | 896 ft | 7 kts | 248° |
| 2026-04-22 01:54 | 31.80048 | 130.71756 | 896 ft | 7 kts | 237° |
| 2026-04-22 01:54 | 31.80042 | 130.71745 | 896 ft | 1 kts | 239° |
| 2026-04-22 01:55 | 31.80042 | 130.71744 | 896 ft | 0 kts | 240° |
| 2026-04-22 01:55 | 31.80042 | 130.71745 | 896 ft | 0 kts | 240° |